sensor_id;sensor_type;location;lat;lon;timestamp;pressure;altitude;pressure_sealevel;temperature
67509;BMP280;54354;44.724;11.284;2023-02-15T00:01:15;103047.44;;;12.29
67509;BMP280;54354;44.724;11.284;2023-02-15T00:03:41;103037.94;;;12.28
67509;BMP280;54354;44.724;11.284;2023-02-15T00:06:06;103048.56;;;12.28
67509;BMP280;54354;44.724;11.284;2023-02-15T00:08:32;103042.84;;;12.26
67509;BMP280;54354;44.724;11.284;2023-02-15T00:11:24;103039.09;;;12.30
67509;BMP280;54354;44.724;11.284;2023-02-15T00:14:13;103031.75;;;12.20
67509;BMP280;54354;44.724;11.284;2023-02-15T00:16:40;103021.84;;;12.17
67509;BMP280;54354;44.724;11.284;2023-02-15T00:19:06;103028.19;;;12.12
67509;BMP280;54354;44.724;11.284;2023-02-15T00:21:34;103030.75;;;12.05
67509;BMP280;54354;44.724;11.284;2023-02-15T00:24:01;103023.44;;;11.99
67509;BMP280;54354;44.724;11.284;2023-02-15T00:26:27;103026.88;;;11.99
67509;BMP280;54354;44.724;11.284;2023-02-15T00:28:55;103019.22;;;11.94
67509;BMP280;54354;44.724;11.284;2023-02-15T00:31:21;103025.97;;;11.91
67509;BMP280;54354;44.724;11.284;2023-02-15T00:33:46;103024.06;;;11.88
67509;BMP280;54354;44.724;11.284;2023-02-15T00:36:12;103022.53;;;11.87
67509;BMP280;54354;44.724;11.284;2023-02-15T00:38:38;103016.75;;;11.82
67509;BMP280;54354;44.724;11.284;2023-02-15T00:41:05;103012.16;;;11.79
67509;BMP280;54354;44.724;11.284;2023-02-15T00:43:32;103011.72;;;11.77
67509;BMP280;54354;44.724;11.284;2023-02-15T00:45:58;103011.81;;;11.80
67509;BMP280;54354;44.724;11.284;2023-02-15T00:48:24;103008.03;;;11.81
67509;BMP280;54354;44.724;11.284;2023-02-15T00:50:58;103009.47;;;11.79
67509;BMP280;54354;44.724;11.284;2023-02-15T00:53:25;103015.63;;;11.83
67509;BMP280;54354;44.724;11.284;2023-02-15T00:55:51;103022.47;;;11.84
67509;BMP280;54354;44.724;11.284;2023-02-15T00:58:17;103022.47;;;11.84
67509;BMP280;54354;44.724;11.284;2023-02-15T01:00:46;103025.09;;;11.80
67509;BMP280;54354;44.724;11.284;2023-02-15T01:03:13;103017.81;;;11.77
67509;BMP280;54354;44.724;11.284;2023-02-15T01:05:38;103026.84;;;11.73
67509;BMP280;54354;44.724;11.284;2023-02-15T01:08:04;103020.00;;;11.72
67509;BMP280;54354;44.724;11.284;2023-02-15T01:10:30;103016.59;;;11.71
67509;BMP280;54354;44.724;11.284;2023-02-15T01:12:56;103013.50;;;11.69
67509;BMP280;54354;44.724;11.284;2023-02-15T01:15:22;103016.88;;;11.66
67509;BMP280;54354;44.724;11.284;2023-02-15T01:17:47;103027.44;;;11.62
67509;BMP280;54354;44.724;11.284;2023-02-15T01:20:22;103015.16;;;11.54
67509;BMP280;54354;44.724;11.284;2023-02-15T01:22:49;103017.78;;;11.54
67509;BMP280;54354;44.724;11.284;2023-02-15T01:25:19;103016.56;;;11.48
67509;BMP280;54354;44.724;11.284;2023-02-15T01:27:45;103017.03;;;11.54
67509;BMP280;54354;44.724;11.284;2023-02-15T01:30:13;103015.44;;;11.49
67509;BMP280;54354;44.724;11.284;2023-02-15T01:32:39;103006.38;;;11.50
67509;BMP280;54354;44.724;11.284;2023-02-15T01:35:05;103010.91;;;11.50
67509;BMP280;54354;44.724;11.284;2023-02-15T01:37:31;103005.19;;;11.48
67509;BMP280;54354;44.724;11.284;2023-02-15T01:39:57;103006.28;;;11.47
67509;BMP280;54354;44.724;11.284;2023-02-15T01:42:24;102998.31;;;11.47
67509;BMP280;54354;44.724;11.284;2023-02-15T01:44:55;102997.97;;;11.48
67509;BMP280;54354;44.724;11.284;2023-02-15T01:47:29;103006.13;;;11.59
67509;BMP280;54354;44.724;11.284;2023-02-15T01:50:18;102995.66;;;11.66
67509;BMP280;54354;44.724;11.284;2023-02-15T01:52:50;102991.75;;;11.60
67509;BMP280;54354;44.724;11.284;2023-02-15T01:55:17;102997.09;;;11.63
67509;BMP280;54354;44.724;11.284;2023-02-15T01:57:43;102991.38;;;11.61
67509;BMP280;54354;44.724;11.284;2023-02-15T02:00:11;102990.28;;;11.62
67509;BMP280;54354;44.724;11.284;2023-02-15T02:02:42;102980.81;;;11.65
67509;BMP280;54354;44.724;11.284;2023-02-15T02:05:08;102987.69;;;11.66
67509;BMP280;54354;44.724;11.284;2023-02-15T02:07:37;102976.94;;;11.59
67509;BMP280;54354;44.724;11.284;2023-02-15T02:10:05;102978.53;;;11.63
67509;BMP280;54354;44.724;11.284;2023-02-15T02:12:33;102978.47;;;11.60
67509;BMP280;54354;44.724;11.284;2023-02-15T02:15:00;102985.28;;;11.61
67509;BMP280;54354;44.724;11.284;2023-02-15T02:17:49;102979.72;;;11.66
67509;BMP280;54354;44.724;11.284;2023-02-15T02:34:23;102978.16;;;11.65
67509;BMP280;54354;44.724;11.284;2023-02-15T02:37:33;102970.25;;;11.68
67509;BMP280;54354;44.724;11.284;2023-02-15T02:45:25;102974.97;;;11.56
67509;BMP280;54354;44.724;11.284;2023-02-15T02:47:59;102976.88;;;11.55
67509;BMP280;54354;44.724;11.284;2023-02-15T02:50:29;102972.19;;;11.45
67509;BMP280;54354;44.724;11.284;2023-02-15T02:52:57;102966.34;;;11.36
67509;BMP280;54354;44.724;11.284;2023-02-15T02:55:38;102968.44;;;11.27
67509;BMP280;54354;44.724;11.284;2023-02-15T02:58:11;102957.72;;;11.23
67509;BMP280;54354;44.724;11.284;2023-02-15T03:00:50;102961.09;;;11.20
67509;BMP280;54354;44.724;11.284;2023-02-15T03:03:32;102962.59;;;11.18
67509;BMP280;54354;44.724;11.284;2023-02-15T03:06:03;102962.88;;;11.12
67509;BMP280;54354;44.724;11.284;2023-02-15T03:08:36;102954.00;;;11.05
67509;BMP280;54354;44.724;11.284;2023-02-15T03:11:04;102959.66;;;11.03
67509;BMP280;54354;44.724;11.284;2023-02-15T03:13:31;102964.91;;;11.00
67509;BMP280;54354;44.724;11.284;2023-02-15T03:15:58;102959.88;;;10.95
67509;BMP280;54354;44.724;11.284;2023-02-15T03:18:48;102965.06;;;10.87
67509;BMP280;54354;44.724;11.284;2023-02-15T03:21:32;102961.94;;;10.82
67509;BMP280;54354;44.724;11.284;2023-02-15T03:24:21;102963.88;;;10.85
67509;BMP280;54354;44.724;11.284;2023-02-15T03:26:49;102954.50;;;10.72
67509;BMP280;54354;44.724;11.284;2023-02-15T03:29:19;102950.25;;;10.67
67509;BMP280;54354;44.724;11.284;2023-02-15T03:31:53;102950.44;;;10.58
67509;BMP280;54354;44.724;11.284;2023-02-15T03:34:20;102952.38;;;10.58
67509;BMP280;54354;44.724;11.284;2023-02-15T03:37:06;102955.00;;;10.58
67509;BMP280;54354;44.724;11.284;2023-02-15T03:39:59;102952.75;;;10.60
67509;BMP280;54354;44.724;11.284;2023-02-15T03:42:45;102954.06;;;10.50
67509;BMP280;54354;44.724;11.284;2023-02-15T03:45:15;102949.22;;;10.36
67509;BMP280;54354;44.724;11.284;2023-02-15T03:47:47;102954.06;;;10.31
67509;BMP280;54354;44.724;11.284;2023-02-15T03:50:18;102953.19;;;10.27
67509;BMP280;54354;44.724;11.284;2023-02-15T03:53:06;102954.38;;;10.29
67509;BMP280;54354;44.724;11.284;2023-02-15T03:55:34;102955.34;;;10.21
67509;BMP280;54354;44.724;11.284;2023-02-15T03:58:00;102958.34;;;10.20
67509;BMP280;54354;44.724;11.284;2023-02-15T04:00:50;102962.28;;;10.10
67509;BMP280;54354;44.724;11.284;2023-02-15T04:03:39;102958.78;;;10.06
67509;BMP280;54354;44.724;11.284;2023-02-15T04:06:06;102960.34;;;10.07
67509;BMP280;54354;44.724;11.284;2023-02-15T04:08:31;102962.53;;;10.05
67509;BMP280;54354;44.724;11.284;2023-02-15T04:11:16;102955.38;;;10.05
67509;BMP280;54354;44.724;11.284;2023-02-15T04:13:41;102964.06;;;10.06
67509;BMP280;54354;44.724;11.284;2023-02-15T04:16:07;102952.78;;;10.09
67509;BMP280;54354;44.724;11.284;2023-02-15T04:18:42;102953.53;;;10.09
67509;BMP280;54354;44.724;11.284;2023-02-15T04:21:29;102955.09;;;10.10
67509;BMP280;54354;44.724;11.284;2023-02-15T04:24:14;102956.97;;;10.10
67509;BMP280;54354;44.724;11.284;2023-02-15T04:26:59;102950.13;;;10.09
67509;BMP280;54354;44.724;11.284;2023-02-15T04:29:26;102952.41;;;10.07
67509;BMP280;54354;44.724;11.284;2023-02-15T04:31:53;102944.84;;;10.09
67509;BMP280;54354;44.724;11.284;2023-02-15T04:34:19;102949.91;;;10.14
67509;BMP280;54354;44.724;11.284;2023-02-15T04:36:45;102951.47;;;10.19
67509;BMP280;54354;44.724;11.284;2023-02-15T04:39:13;102946.19;;;10.19
67509;BMP280;54354;44.724;11.284;2023-02-15T04:41:38;102949.72;;;10.23
67509;BMP280;54354;44.724;11.284;2023-02-15T04:44:04;102941.41;;;10.24
67509;BMP280;54354;44.724;11.284;2023-02-15T04:46:30;102943.78;;;10.29
67509;BMP280;54354;44.724;11.284;2023-02-15T04:48:55;102942.41;;;10.35
67509;BMP280;54354;44.724;11.284;2023-02-15T04:51:21;102952.31;;;10.38
67509;BMP280;54354;44.724;11.284;2023-02-15T04:53:47;102945.56;;;10.41
67509;BMP280;54354;44.724;11.284;2023-02-15T04:56:13;102944.84;;;10.44
67509;BMP280;54354;44.724;11.284;2023-02-15T04:58:38;102936.59;;;10.46
67509;BMP280;54354;44.724;11.284;2023-02-15T05:01:09;102936.41;;;10.38
67509;BMP280;54354;44.724;11.284;2023-02-15T05:03:35;102943.25;;;10.39
67509;BMP280;54354;44.724;11.284;2023-02-15T05:06:01;102939.06;;;10.38
67509;BMP280;54354;44.724;11.284;2023-02-15T05:08:26;102947.84;;;10.43
67509;BMP280;54354;44.724;11.284;2023-02-15T05:10:52;102958.53;;;10.46
67509;BMP280;54354;44.724;11.284;2023-02-15T05:13:17;102950.69;;;10.50
67509;BMP280;54354;44.724;11.284;2023-02-15T05:15:52;102951.78;;;10.49
67509;BMP280;54354;44.724;11.284;2023-02-15T05:18:20;102943.13;;;10.52
67509;BMP280;54354;44.724;11.284;2023-02-15T05:20:46;102952.19;;;10.51
67509;BMP280;54354;44.724;11.284;2023-02-15T05:23:12;102958.09;;;10.44
67509;BMP280;54354;44.724;11.284;2023-02-15T05:25:38;102959.06;;;10.36
67509;BMP280;54354;44.724;11.284;2023-02-15T05:28:32;102957.47;;;10.31
67509;BMP280;54354;44.724;11.284;2023-02-15T05:31:13;102949.63;;;10.19
67509;BMP280;54354;44.724;11.284;2023-02-15T05:33:40;102949.53;;;10.16
67509;BMP280;54354;44.724;11.284;2023-02-15T05:36:06;102948.25;;;10.09
67509;BMP280;54354;44.724;11.284;2023-02-15T05:38:33;102946.66;;;10.05
67509;BMP280;54354;44.724;11.284;2023-02-15T05:40:59;102956.03;;;10.02
67509;BMP280;54354;44.724;11.284;2023-02-15T05:43:24;102950.75;;;10.02
67509;BMP280;54354;44.724;11.284;2023-02-15T05:45:52;102949.94;;;9.98
67509;BMP280;54354;44.724;11.284;2023-02-15T05:48:19;102943.47;;;9.99
67509;BMP280;54354;44.724;11.284;2023-02-15T05:50:45;102955.22;;;9.98
67509;BMP280;54354;44.724;11.284;2023-02-15T05:53:11;102953.31;;;9.99
67509;BMP280;54354;44.724;11.284;2023-02-15T05:55:38;102954.34;;;9.94
67509;BMP280;54354;44.724;11.284;2023-02-15T05:58:05;102955.09;;;9.95
67509;BMP280;54354;44.724;11.284;2023-02-15T06:00:30;102964.16;;;9.94
67509;BMP280;54354;44.724;11.284;2023-02-15T06:02:56;102956.88;;;9.91
67509;BMP280;54354;44.724;11.284;2023-02-15T06:05:21;102958.81;;;9.90
67509;BMP280;54354;44.724;11.284;2023-02-15T06:07:47;102959.63;;;9.94
67509;BMP280;54354;44.724;11.284;2023-02-15T06:10:12;102963.91;;;9.99
67509;BMP280;54354;44.724;11.284;2023-02-15T06:12:38;102959.13;;;10.04
67509;BMP280;54354;44.724;11.284;2023-02-15T06:15:04;102965.25;;;10.08
67509;BMP280;54354;44.724;11.284;2023-02-15T06:17:29;102969.09;;;10.11
67509;BMP280;54354;44.724;11.284;2023-02-15T06:19:55;102961.84;;;10.08
67509;BMP280;54354;44.724;11.284;2023-02-15T06:22:20;102971.69;;;10.07
67509;BMP280;54354;44.724;11.284;2023-02-15T06:24:47;102970.81;;;10.03
67509;BMP280;54354;44.724;11.284;2023-02-15T06:27:12;102976.00;;;10.00
67509;BMP280;54354;44.724;11.284;2023-02-15T06:29:38;102972.59;;;9.99
67509;BMP280;54354;44.724;11.284;2023-02-15T06:32:04;102968.44;;;9.98
67509;BMP280;54354;44.724;11.284;2023-02-15T06:34:29;102969.13;;;9.95
67509;BMP280;54354;44.724;11.284;2023-02-15T06:36:55;102974.84;;;9.97
67509;BMP280;54354;44.724;11.284;2023-02-15T06:39:20;102976.00;;;10.00
67509;BMP280;54354;44.724;11.284;2023-02-15T06:41:46;102977.22;;;10.02
67509;BMP280;54354;44.724;11.284;2023-02-15T06:44:11;102979.88;;;10.02
67509;BMP280;54354;44.724;11.284;2023-02-15T06:46:37;102982.97;;;10.04
67509;BMP280;54354;44.724;11.284;2023-02-15T06:49:02;102987.13;;;10.05
67509;BMP280;54354;44.724;11.284;2023-02-15T06:51:28;102978.94;;;10.10
67509;BMP280;54354;44.724;11.284;2023-02-15T06:53:53;102979.78;;;10.14
67509;BMP280;54354;44.724;11.284;2023-02-15T06:56:19;102970.38;;;10.17
67509;BMP280;54354;44.724;11.284;2023-02-15T06:58:44;102984.56;;;10.25
67509;BMP280;54354;44.724;11.284;2023-02-15T07:01:14;102981.69;;;10.33
67509;BMP280;54354;44.724;11.284;2023-02-15T07:03:40;102982.13;;;10.35
67509;BMP280;54354;44.724;11.284;2023-02-15T07:06:06;102979.56;;;10.39
67509;BMP280;54354;44.724;11.284;2023-02-15T07:08:34;102981.94;;;10.44
67509;BMP280;54354;44.724;11.284;2023-02-15T07:11:00;102979.44;;;10.51
67509;BMP280;54354;44.724;11.284;2023-02-15T07:13:44;102972.41;;;10.59
67509;BMP280;54354;44.724;11.284;2023-02-15T07:16:10;102976.25;;;10.61
67509;BMP280;54354;44.724;11.284;2023-02-15T07:18:36;102967.63;;;10.64
67509;BMP280;54354;44.724;11.284;2023-02-15T07:21:02;102977.28;;;10.73
67509;BMP280;54354;44.724;11.284;2023-02-15T07:23:28;102969.00;;;10.78
67509;BMP280;54354;44.724;11.284;2023-02-15T07:25:57;102967.56;;;10.80
67509;BMP280;54354;44.724;11.284;2023-02-15T08:06:11;102996.91;;;12.85
67509;BMP280;54354;44.724;11.284;2023-02-15T08:08:39;102997.38;;;12.94
67509;BMP280;54354;44.724;11.284;2023-02-15T08:13:57;102994.47;;;13.10
67509;BMP280;54354;44.724;11.284;2023-02-15T08:16:34;102996.09;;;13.18
67509;BMP280;54354;44.724;11.284;2023-02-15T08:19:04;102994.25;;;13.26
67509;BMP280;54354;44.724;11.284;2023-02-15T08:21:31;102994.00;;;13.38
67509;BMP280;54354;44.724;11.284;2023-02-15T08:23:58;102995.94;;;13.45
67509;BMP280;54354;44.724;11.284;2023-02-15T08:26:25;102985.75;;;13.54
67509;BMP280;54354;44.724;11.284;2023-02-15T08:28:52;102986.63;;;13.65
67509;BMP280;54354;44.724;11.284;2023-02-15T08:31:18;102993.13;;;13.75
67509;BMP280;54354;44.724;11.284;2023-02-15T08:33:45;102985.19;;;13.82
67509;BMP280;54354;44.724;11.284;2023-02-15T08:36:16;102984.88;;;13.94
67509;BMP280;54354;44.724;11.284;2023-02-15T08:38:42;102983.84;;;14.10
67509;BMP280;54354;44.724;11.284;2023-02-15T08:41:12;102983.47;;;14.18
67509;BMP280;54354;44.724;11.284;2023-02-15T08:43:38;102991.94;;;14.31
67509;BMP280;54354;44.724;11.284;2023-02-15T08:46:06;102987.03;;;14.40
67509;BMP280;54354;44.724;11.284;2023-02-15T08:48:31;102980.19;;;14.50
67509;BMP280;54354;44.724;11.284;2023-02-15T08:50:57;102978.69;;;14.63
67509;BMP280;54354;44.724;11.284;2023-02-15T08:53:23;102985.59;;;14.75
67509;BMP280;54354;44.724;11.284;2023-02-15T08:55:56;102987.53;;;14.81
67509;BMP280;54354;44.724;11.284;2023-02-15T08:58:22;102978.75;;;14.92
67509;BMP280;54354;44.724;11.284;2023-02-15T09:00:48;102981.84;;;15.01
67509;BMP280;54354;44.724;11.284;2023-02-15T09:03:13;103000.53;;;15.08
67509;BMP280;54354;44.724;11.284;2023-02-15T09:05:39;102989.47;;;15.17
67509;BMP280;54354;44.724;11.284;2023-02-15T09:08:04;102984.16;;;15.24
67509;BMP280;54354;44.724;11.284;2023-02-15T09:10:30;102982.63;;;15.30
67509;BMP280;54354;44.724;11.284;2023-02-15T09:12:55;102985.25;;;15.37
67509;BMP280;54354;44.724;11.284;2023-02-15T09:15:21;102979.16;;;15.44
67509;BMP280;54354;44.724;11.284;2023-02-15T09:17:46;102985.25;;;15.51
67509;BMP280;54354;44.724;11.284;2023-02-15T09:20:12;102978.00;;;15.59
67509;BMP280;54354;44.724;11.284;2023-02-15T09:22:37;102979.53;;;15.63
67509;BMP280;54354;44.724;11.284;2023-02-15T09:25:03;102975.69;;;15.68
67509;BMP280;54354;44.724;11.284;2023-02-15T09:27:30;102986.75;;;15.74
67509;BMP280;54354;44.724;11.284;2023-02-15T09:29:55;102982.91;;;15.78
67509;BMP280;54354;44.724;11.284;2023-02-15T09:32:21;102991.66;;;15.82
67509;BMP280;54354;44.724;11.284;2023-02-15T09:34:47;102980.59;;;15.87
67509;BMP280;54354;44.724;11.284;2023-02-15T09:37:13;102985.94;;;15.91
67509;BMP280;54354;44.724;11.284;2023-02-15T09:39:41;102978.69;;;15.95
67509;BMP280;54354;44.724;11.284;2023-02-15T09:45:26;102981.28;;;16.09
67509;BMP280;54354;44.724;11.284;2023-02-15T10:05:15;102991.41;;;16.50
67509;BMP280;54354;44.724;11.284;2023-02-15T10:18:29;102980.53;;;16.82
67509;BMP280;54354;44.724;11.284;2023-02-15T10:21:07;102980.09;;;16.84
67509;BMP280;54354;44.724;11.284;2023-02-15T10:26:33;102976.59;;;16.94
67509;BMP280;54354;44.724;11.284;2023-02-15T10:35:15;102958.41;;;17.16
67509;BMP280;54354;44.724;11.284;2023-02-15T10:48:48;102947.19;;;17.31
67509;BMP280;54354;44.724;11.284;2023-02-15T10:54:48;102936.28;;;17.49
67509;BMP280;54354;44.724;11.284;2023-02-15T11:00:31;102937.00;;;17.53
67509;BMP280;54354;44.724;11.284;2023-02-15T11:06:02;102934.31;;;17.53
67509;BMP280;54354;44.724;11.284;2023-02-15T11:08:32;102923.19;;;17.55
67509;BMP280;54354;44.724;11.284;2023-02-15T11:11:06;102921.25;;;17.59
67509;BMP280;54354;44.724;11.284;2023-02-15T11:13:38;102917.78;;;17.62
67509;BMP280;54354;44.724;11.284;2023-02-15T11:16:08;102921.91;;;17.67
67509;BMP280;54354;44.724;11.284;2023-02-15T11:19:08;102902.97;;;17.81
67509;BMP280;54354;44.724;11.284;2023-02-15T11:21:49;102905.59;;;17.84
67509;BMP280;54354;44.724;11.284;2023-02-15T11:24:17;102908.28;;;17.84
67509;BMP280;54354;44.724;11.284;2023-02-15T11:26:48;102904.06;;;17.87
67509;BMP280;54354;44.724;11.284;2023-02-15T11:31:54;102893.56;;;17.96
67509;BMP280;54354;44.724;11.284;2023-02-15T11:34:27;102887.41;;;17.99
67509;BMP280;54354;44.724;11.284;2023-02-15T11:36:55;102894.16;;;18.07
67509;BMP280;54354;44.724;11.284;2023-02-15T11:39:26;102880.03;;;18.07
67509;BMP280;54354;44.724;11.284;2023-02-15T11:41:57;102871.47;;;18.15
67509;BMP280;54354;44.724;11.284;2023-02-15T11:44:27;102866.16;;;18.59
67509;BMP280;54354;44.724;11.284;2023-02-15T11:46:57;102870.78;;;18.35
67509;BMP280;54354;44.724;11.284;2023-02-15T11:49:30;102869.34;;;18.30
67509;BMP280;54354;44.724;11.284;2023-02-15T11:51:57;102863.91;;;18.34
67509;BMP280;54354;44.724;11.284;2023-02-15T11:54:31;102857.28;;;18.38
67509;BMP280;54354;44.724;11.284;2023-02-15T11:57:05;102861.44;;;18.43
67509;BMP280;54354;44.724;11.284;2023-02-15T11:59:37;102851.34;;;18.51
67509;BMP280;54354;44.724;11.284;2023-02-15T12:02:17;102851.56;;;18.60
67509;BMP280;54354;44.724;11.284;2023-02-15T12:04:48;102851.91;;;18.62
67509;BMP280;54354;44.724;11.284;2023-02-15T12:07:37;102854.34;;;18.76
67509;BMP280;54354;44.724;11.284;2023-02-15T12:12:47;102858.44;;;18.84
67509;BMP280;54354;44.724;11.284;2023-02-15T12:15:13;102844.53;;;18.89
67509;BMP280;54354;44.724;11.284;2023-02-15T12:22:48;102840.72;;;19.07
67509;BMP280;54354;44.724;11.284;2023-02-15T12:25:36;102829.69;;;19.21
67509;BMP280;54354;44.724;11.284;2023-02-15T12:28:03;102823.22;;;19.18
67509;BMP280;54354;44.724;11.284;2023-02-15T12:30:35;102820.47;;;19.22
67509;BMP280;54354;44.724;11.284;2023-02-15T12:33:18;102817.16;;;19.34
67509;BMP280;54354;44.724;11.284;2023-02-15T12:35:47;102822.84;;;19.36
67509;BMP280;54354;44.724;11.284;2023-02-15T12:40:40;102818.09;;;19.44
67509;BMP280;54354;44.724;11.284;2023-02-15T12:43:33;102805.22;;;19.51
67509;BMP280;54354;44.724;11.284;2023-02-15T12:46:22;102807.03;;;19.58
67509;BMP280;54354;44.724;11.284;2023-02-15T12:49:05;102807.69;;;19.62
67509;BMP280;54354;44.724;11.284;2023-02-15T12:51:42;102801.56;;;19.62
67509;BMP280;54354;44.724;11.284;2023-02-15T12:56:47;102796.72;;;19.73
67509;BMP280;54354;44.724;11.284;2023-02-15T12:59:14;102788.94;;;19.75
67509;BMP280;54354;44.724;11.284;2023-02-15T13:01:46;102787.28;;;19.81
67509;BMP280;54354;44.724;11.284;2023-02-15T13:04:19;102779.09;;;19.84
67509;BMP280;54354;44.724;11.284;2023-02-15T13:06:50;102775.50;;;19.91
67509;BMP280;54354;44.724;11.284;2023-02-15T13:09:38;102771.69;;;20.05
67509;BMP280;54354;44.724;11.284;2023-02-15T13:12:18;102770.44;;;20.09
67509;BMP280;54354;44.724;11.284;2023-02-15T13:14:46;102768.75;;;20.16
67509;BMP280;54354;44.724;11.284;2023-02-15T13:17:15;102769.50;;;20.16
67509;BMP280;54354;44.724;11.284;2023-02-15T13:20:03;102766.84;;;20.29
67509;BMP280;54354;44.724;11.284;2023-02-15T13:22:38;102770.06;;;20.24
67509;BMP280;54354;44.724;11.284;2023-02-15T13:25:20;102774.66;;;20.23
67509;BMP280;54354;44.724;11.284;2023-02-15T13:27:50;102773.53;;;20.24
67509;BMP280;54354;44.724;11.284;2023-02-15T13:35:41;102762.78;;;20.37
67509;BMP280;54354;44.724;11.284;2023-02-15T13:41:33;102762.56;;;20.44
67509;BMP280;54354;44.724;11.284;2023-02-15T13:44:07;102768.22;;;20.50
67509;BMP280;54354;44.724;11.284;2023-02-15T13:46:51;102753.59;;;20.51
67509;BMP280;54354;44.724;11.284;2023-02-15T13:49:26;102757.44;;;20.50
67509;BMP280;54354;44.724;11.284;2023-02-15T13:57:17;102749.56;;;20.55
67509;BMP280;54354;44.724;11.284;2023-02-15T13:59:47;102753.00;;;20.56
67509;BMP280;54354;44.724;11.284;2023-02-15T14:05:40;102743.56;;;20.64
67509;BMP280;54354;44.724;11.284;2023-02-15T14:11:22;102731.75;;;20.74
67509;BMP280;54354;44.724;11.284;2023-02-15T14:19:16;102722.38;;;20.79
67509;BMP280;54354;44.724;11.284;2023-02-15T14:21:48;102726.69;;;20.76
67509;BMP280;54354;44.724;11.284;2023-02-15T14:30:02;102721.75;;;20.87
67509;BMP280;54354;44.724;11.284;2023-02-15T14:32:39;102713.03;;;20.83
67509;BMP280;54354;44.724;11.284;2023-02-15T14:35:20;102722.94;;;20.86
67509;BMP280;54354;44.724;11.284;2023-02-15T14:37:54;102719.16;;;20.84
67509;BMP280;54354;44.724;11.284;2023-02-15T14:46:08;102726.72;;;20.89
67509;BMP280;54354;44.724;11.284;2023-02-15T14:48:47;102718.94;;;20.91
67509;BMP280;54354;44.724;11.284;2023-02-15T14:56:42;102724.97;;;20.95
67509;BMP280;54354;44.724;11.284;2023-02-15T14:59:14;102727.00;;;20.91
67509;BMP280;54354;44.724;11.284;2023-02-15T15:01:50;102719.28;;;20.93
67509;BMP280;54354;44.724;11.284;2023-02-15T15:04:30;102723.03;;;20.95
67509;BMP280;54354;44.724;11.284;2023-02-15T15:07:09;102724.53;;;20.96
67509;BMP280;54354;44.724;11.284;2023-02-15T15:09:41;102716.91;;;20.95
67509;BMP280;54354;44.724;11.284;2023-02-15T15:14:53;102720.00;;;20.93
67509;BMP280;54354;44.724;11.284;2023-02-15T15:22:43;102713.97;;;20.89
67509;BMP280;54354;44.724;11.284;2023-02-15T15:27:57;102721.34;;;20.89
67509;BMP280;54354;44.724;11.284;2023-02-15T15:36:03;102702.47;;;20.89
67509;BMP280;54354;44.724;11.284;2023-02-15T15:41:38;102701.38;;;20.86
67509;BMP280;54354;44.724;11.284;2023-02-15T15:49:20;102693.75;;;20.72
67509;BMP280;54354;44.724;11.284;2023-02-15T15:51:46;102694.16;;;20.70
67509;BMP280;54354;44.724;11.284;2023-02-15T15:54:16;102697.69;;;20.67
67509;BMP280;54354;44.724;11.284;2023-02-15T15:56:45;102702.66;;;20.69
67509;BMP280;54354;44.724;11.284;2023-02-15T15:59:14;102700.84;;;21.04
67509;BMP280;54354;44.724;11.284;2023-02-15T16:01:44;102693.28;;;20.73
67509;BMP280;54354;44.724;11.284;2023-02-15T16:04:12;102693.75;;;20.59
67509;BMP280;54354;44.724;11.284;2023-02-15T16:06:39;102688.88;;;20.54
67509;BMP280;54354;44.724;11.284;2023-02-15T16:09:19;102694.66;;;20.53
67509;BMP280;54354;44.724;11.284;2023-02-15T16:11:59;102697.13;;;20.47
67509;BMP280;54354;44.724;11.284;2023-02-15T16:14:32;102696.25;;;20.37
67509;BMP280;54354;44.724;11.284;2023-02-15T16:17:04;102697.09;;;20.34
67509;BMP280;54354;44.724;11.284;2023-02-15T16:19:32;102697.63;;;20.71
67509;BMP280;54354;44.724;11.284;2023-02-15T16:22:01;102698.31;;;20.33
67509;BMP280;54354;44.724;11.284;2023-02-15T16:27:50;102697.69;;;20.13
67509;BMP280;54354;44.724;11.284;2023-02-15T16:30:29;102691.00;;;20.05
67509;BMP280;54354;44.724;11.284;2023-02-15T16:33:14;102697.13;;;20.05
67509;BMP280;54354;44.724;11.284;2023-02-15T16:35:53;102694.97;;;20.00
67509;BMP280;54354;44.724;11.284;2023-02-15T16:41:08;102696.81;;;19.87
67509;BMP280;54354;44.724;11.284;2023-02-15T16:43:36;102698.72;;;19.74
67509;BMP280;54354;44.724;11.284;2023-02-15T16:46:15;102697.72;;;19.68
67509;BMP280;54354;44.724;11.284;2023-02-15T16:48:45;102702.44;;;19.64
67509;BMP280;54354;44.724;11.284;2023-02-15T16:51:23;102708.72;;;19.57
67509;BMP280;54354;44.724;11.284;2023-02-15T16:53:51;102705.13;;;19.47
67509;BMP280;54354;44.724;11.284;2023-02-15T16:56:26;102716.91;;;19.37
67509;BMP280;54354;44.724;11.284;2023-02-15T16:58:54;102710.53;;;19.31
67509;BMP280;54354;44.724;11.284;2023-02-15T17:01:22;102716.88;;;19.21
67509;BMP280;54354;44.724;11.284;2023-02-15T17:03:51;102715.50;;;19.13
67509;BMP280;54354;44.724;11.284;2023-02-15T17:06:21;102720.69;;;19.04
67509;BMP280;54354;44.724;11.284;2023-02-15T17:08:46;102717.94;;;19.07
67509;BMP280;54354;44.724;11.284;2023-02-15T17:11:33;102717.25;;;19.03
67509;BMP280;54354;44.724;11.284;2023-02-15T17:16:32;102723.44;;;18.84
67509;BMP280;54354;44.724;11.284;2023-02-15T17:19:07;102731.16;;;18.82
67509;BMP280;54354;44.724;11.284;2023-02-15T17:21:37;102729.78;;;18.74
67509;BMP280;54354;44.724;11.284;2023-02-15T17:24:05;102728.31;;;18.69
67509;BMP280;54354;44.724;11.284;2023-02-15T17:26:33;102731.56;;;18.60
67509;BMP280;54354;44.724;11.284;2023-02-15T17:31:32;102724.91;;;18.49
67509;BMP280;54354;44.724;11.284;2023-02-15T17:34:01;102723.84;;;18.42
67509;BMP280;54354;44.724;11.284;2023-02-15T17:36:28;102728.94;;;18.37
67509;BMP280;54354;44.724;11.284;2023-02-15T17:41:32;102733.00;;;18.25